Mozart, Arkansas
Current Conditions -  °F | °C
As of 10:35 AM on Monday 24 Nov 2014 (Local Time) from KCCA Reporting Station
Clear Clear  
Wind Chill: 12°   Ceiling: Unl
Heat Index: 12°   Visibility: 10mi
Dew Point: -2°   Wind: 12mph
Humidity: 38%   Direction: 260°W
Pressure: 29.89"   Gusts: 17mph
Location:  35.7627°N, 92.308°W
Report Text: KCCA 241635Z AUTO 26010G15KT 10SM CLR 12/M02 A2989 RMK AO2
Loading
Personal Weather Stations






























Interactive Weather Map New forecast layout! Learn more

10-Day Weather Forecast

Advertisements
Track Severe Weather on mobile